createdAt,value
2023-02-27T00:01:24.886Z,0.40
2023-02-27T00:03:51.368Z,0.30
2023-02-27T00:06:18.183Z,0.40
2023-02-27T00:08:45.857Z,0.40
2023-02-27T00:11:12.019Z,0.40
2023-02-27T00:13:38.173Z,0.40
2023-02-27T00:16:06.183Z,0.40
2023-02-27T00:18:33.935Z,0.30
2023-02-27T00:21:00.580Z,0.30
2023-02-27T00:23:28.163Z,0.40
2023-02-27T00:25:56.053Z,0.40
2023-02-27T00:28:22.903Z,0.30
2023-02-27T00:30:49.035Z,0.30
2023-02-27T00:33:15.688Z,0.30
2023-02-27T00:35:41.905Z,0.30
2023-02-27T00:38:08.550Z,0.30
2023-02-27T00:40:37.729Z,0.30
2023-02-27T00:43:04.220Z,0.30
2023-02-27T00:45:30.326Z,1.00
2023-02-27T00:47:56.942Z,0.20
2023-02-27T00:50:23.677Z,0.20
2023-02-27T00:52:50.685Z,0.20
2023-02-27T00:55:17.975Z,0.30
2023-02-27T00:57:44.899Z,0.20
2023-02-27T01:00:13.838Z,0.20
2023-02-27T01:02:40.078Z,0.20
2023-02-27T01:05:06.504Z,0.10
2023-02-27T01:07:32.667Z,0.20
2023-02-27T01:09:59.524Z,0.10
2023-02-27T01:12:25.742Z,0.20
2023-02-27T01:14:51.953Z,0.10
2023-02-27T01:17:18.283Z,0.10
2023-02-27T01:19:44.470Z,0.10
2023-02-27T01:22:11.094Z,0.10
2023-02-27T01:24:37.230Z,0.10
2023-02-27T01:27:03.554Z,0.10
2023-02-27T01:29:30.595Z,0.10
2023-02-27T01:31:57.329Z,0.10
2023-02-27T01:34:24.450Z,0.10
2023-02-27T01:36:50.721Z,0.10
2023-02-27T01:39:18.037Z,0.10
2023-02-27T01:41:44.396Z,0.10
2023-02-27T01:44:12.758Z,0.10
2023-02-27T01:46:40.533Z,0.00
2023-02-27T01:49:40.569Z,0.10
2023-02-27T01:52:08.632Z,0.00
2023-02-27T01:54:40.630Z,0.00
2023-02-27T01:57:06.947Z,0.30
2023-02-27T01:59:34.802Z,0.00
2023-02-27T02:02:10.717Z,0.00
2023-02-27T02:04:37.933Z,0.00
2023-02-27T02:07:09.743Z,0.00
2023-02-27T02:09:40.109Z,0.00
2023-02-27T02:12:07.002Z,0.00
2023-02-27T02:14:33.750Z,-0.10
2023-02-27T02:18:40.211Z,0.00
2023-02-27T02:27:46.183Z,0.00
2023-02-27T02:30:47.514Z,0.00
2023-02-27T02:38:42.710Z,0.00
2023-02-27T02:41:40.363Z,-0.10
2023-02-27T02:45:40.302Z,-0.10
2023-02-27T02:48:32.672Z,0.00
2023-02-27T02:51:15.987Z,0.00
2023-02-27T02:54:21.577Z,-0.10
2023-02-27T02:56:53.415Z,-0.10
2023-02-27T02:59:32.585Z,0.00
2023-02-27T03:02:21.366Z,-0.10
2023-02-27T03:05:09.148Z,0.40
2023-02-27T03:08:18.885Z,0.00
2023-02-27T03:10:58.042Z,0.00
2023-02-27T03:15:12.225Z,0.00
2023-02-27T03:18:20.611Z,-0.10
2023-02-27T03:20:57.226Z,-0.10
2023-02-27T03:23:31.056Z,-0.10
2023-02-27T03:25:58.565Z,-0.10
2023-02-27T03:28:28.835Z,0.00
2023-02-27T03:31:09.902Z,0.20
2023-02-27T03:33:40.487Z,-0.10
2023-02-27T03:36:12.677Z,0.60
2023-02-27T03:38:45.129Z,0.00
2023-02-27T03:41:27.127Z,-0.10
2023-02-27T03:44:10.869Z,-0.10
2023-02-27T03:46:37.398Z,0.50
2023-02-27T03:49:03.617Z,-0.10
2023-02-27T03:51:31.300Z,-0.10
2023-02-27T03:54:16.469Z,-0.10
2023-02-27T03:56:53.544Z,-0.10
2023-02-27T03:59:19.682Z,-0.10
2023-02-27T04:01:45.944Z,-0.10
2023-02-27T04:04:14.167Z,-0.10
2023-02-27T04:07:03.062Z,-0.10
2023-02-27T04:10:10.859Z,-0.10
2023-02-27T04:13:40.021Z,-0.10
2023-02-27T04:23:14.717Z,-0.10
2023-02-27T04:26:07.858Z,-0.20
2023-02-27T04:28:48.220Z,-0.20
2023-02-27T04:31:23.841Z,-0.10
2023-02-27T04:34:02.607Z,-0.10
2023-02-27T04:36:50.444Z,-0.10
2023-02-27T04:39:31.099Z,-0.10
2023-02-27T04:42:02.726Z,-0.10
2023-02-27T04:44:29.715Z,-0.10
2023-02-27T04:46:56.926Z,-0.20
2023-02-27T04:49:32.631Z,0.00
2023-02-27T04:52:14.607Z,-0.20
2023-02-27T04:56:20.269Z,-0.20
2023-02-27T04:58:56.381Z,-0.20
2023-02-27T05:01:56.835Z,-0.20
2023-02-27T05:04:25.108Z,-0.20
2023-02-27T05:06:52.782Z,-0.20
2023-02-27T05:09:23.718Z,-0.30
2023-02-27T05:12:24.463Z,-0.30
2023-02-27T05:16:29.523Z,-0.30
2023-02-27T05:18:55.758Z,-0.30
2023-02-27T05:23:00.832Z,-0.30
2023-02-27T05:25:32.944Z,-0.30
2023-02-27T05:28:09.848Z,-0.30
2023-02-27T05:31:09.847Z,-0.30
2023-02-27T05:33:44.150Z,-0.50
2023-02-27T05:36:22.553Z,-0.40
2023-02-27T05:38:59.564Z,0.30
2023-02-27T05:41:29.602Z,-0.40
2023-02-27T05:44:11.088Z,-0.40
2023-02-27T05:46:41.021Z,-0.30
2023-02-27T05:49:11.468Z,-0.30
2023-02-27T05:51:37.755Z,-0.30
2023-02-27T05:54:15.980Z,-0.40
2023-02-27T05:56:43.176Z,-0.30
2023-02-27T05:59:17.706Z,-0.10
2023-02-27T06:01:46.197Z,-0.30
2023-02-27T06:04:12.618Z,-0.30
2023-02-27T06:06:41.269Z,-0.30
2023-02-27T06:09:08.153Z,-0.30
2023-02-27T06:11:34.774Z,0.40
2023-02-27T06:14:00.908Z,-0.30
2023-02-27T06:16:28.726Z,-0.30
2023-02-27T06:18:55.241Z,-0.30
2023-02-27T06:21:21.657Z,-0.20
2023-02-27T06:23:48.165Z,-0.30
2023-02-27T06:26:15.074Z,-0.30
2023-02-27T06:28:41.805Z,-0.20
2023-02-27T06:31:08.162Z,0.50
2023-02-27T06:33:35.148Z,-0.20
2023-02-27T06:36:01.497Z,-0.20
2023-02-27T06:38:27.700Z,-0.20
2023-02-27T06:40:54.921Z,-0.30
2023-02-27T06:43:22.805Z,-0.20
2023-02-27T06:45:52.345Z,-0.20
2023-02-27T06:48:18.547Z,-0.20
2023-02-27T06:50:45.845Z,-0.20
2023-02-27T06:53:12.048Z,-0.10
2023-02-27T06:55:39.252Z,-0.10
2023-02-27T06:58:05.379Z,-0.10
2023-02-27T07:00:31.635Z,0.40
2023-02-27T07:02:57.814Z,-0.10
2023-02-27T07:05:24.630Z,-0.10
2023-02-27T07:07:52.104Z,0.40
2023-02-27T07:10:19.325Z,0.00
2023-02-27T07:12:48.630Z,-0.10
2023-02-27T07:15:14.891Z,-0.10
2023-02-27T07:17:41.072Z,-0.10
2023-02-27T07:20:11.766Z,-0.10
2023-02-27T07:22:43.731Z,0.00
2023-02-27T07:25:10.268Z,-0.10
2023-02-27T07:27:36.793Z,0.50
2023-02-27T07:30:04.764Z,0.00
2023-02-27T07:32:30.958Z,0.00
2023-02-27T07:34:57.810Z,0.00
2023-02-27T07:37:28.170Z,0.10
2023-02-27T07:39:55.733Z,0.20
2023-02-27T07:42:22.774Z,0.20
2023-02-27T07:44:50.823Z,0.30
2023-02-27T07:47:17.189Z,0.30
2023-02-27T07:49:44.983Z,0.30
2023-02-27T07:52:11.371Z,0.20
2023-02-27T07:54:40.056Z,0.30
2023-02-27T07:57:06.327Z,0.20
2023-02-27T07:59:34.069Z,0.30
2023-02-27T08:02:03.407Z,0.40
2023-02-27T08:04:30.353Z,0.50
2023-02-27T08:06:58.115Z,0.50
2023-02-27T08:09:24.424Z,0.60
2023-02-27T08:11:53.785Z,0.50
2023-02-27T08:14:20.059Z,0.60
2023-02-27T08:16:46.743Z,0.60
2023-02-27T08:19:14.104Z,0.60
2023-02-27T08:21:41.611Z,0.70
2023-02-27T08:24:08.076Z,0.70
2023-02-27T08:26:35.135Z,0.60
2023-02-27T08:29:01.365Z,0.80
2023-02-27T08:31:27.661Z,0.90
2023-02-27T08:34:01.073Z,1.00
2023-02-27T08:36:37.412Z,1.10
2023-02-27T08:39:04.571Z,1.10
2023-02-27T08:41:30.930Z,1.20
2023-02-27T08:43:57.107Z,1.30
2023-02-27T08:46:24.818Z,1.20
2023-02-27T08:48:51.633Z,1.40
2023-02-27T08:51:18.292Z,1.50
2023-02-27T08:53:44.515Z,1.80
2023-02-27T08:56:11.124Z,2.10
2023-02-27T08:58:37.325Z,1.80
2023-02-27T09:01:05.395Z,2.30
2023-02-27T09:03:31.654Z,2.10
2023-02-27T09:05:58.834Z,2.20
2023-02-27T09:08:25.813Z,2.80
2023-02-27T09:10:57.420Z,2.60
2023-02-27T09:13:24.209Z,2.80
2023-02-27T09:15:50.611Z,3.60
2023-02-27T09:18:16.863Z,3.90
2023-02-27T09:20:43.376Z,4.20
2023-02-27T09:23:09.925Z,3.10
2023-02-27T09:25:36.312Z,2.80
2023-02-27T09:28:02.969Z,2.40
2023-02-27T09:30:29.881Z,2.50
2023-02-27T09:32:56.084Z,2.50
2023-02-27T09:35:22.397Z,2.40
2023-02-27T09:37:49.481Z,2.20
2023-02-27T09:40:29.880Z,2.00
2023-02-27T09:42:59.920Z,2.40
2023-02-27T09:45:31.195Z,2.40
2023-02-27T09:48:45.245Z,2.40
2023-02-27T09:51:13.925Z,2.70
2023-02-27T09:53:42.247Z,2.90
2023-02-27T09:56:31.832Z,3.10
2023-02-27T09:59:10.069Z,3.70
2023-02-27T10:01:43.222Z,2.90
2023-02-27T10:05:55.641Z,3.00
2023-02-27T10:09:46.035Z,3.50
2023-02-27T10:12:40.229Z,3.70
2023-02-27T10:15:17.530Z,3.60
2023-02-27T10:17:50.804Z,3.60
2023-02-27T10:20:26.046Z,3.80
2023-02-27T10:22:52.474Z,4.00
2023-02-27T10:25:30.704Z,4.00
2023-02-27T10:28:03.357Z,3.70
2023-02-27T10:30:33.503Z,3.80
2023-02-27T10:33:28.240Z,4.00
2023-02-27T10:35:54.840Z,3.80
2023-02-27T10:38:33.404Z,4.50
2023-02-27T10:41:01.338Z,4.10
2023-02-27T10:43:28.245Z,4.50
2023-02-27T10:45:56.781Z,4.60
2023-02-27T10:48:23.560Z,4.90
2023-02-27T10:50:54.376Z,4.80
2023-02-27T10:53:27.426Z,4.80
2023-02-27T10:56:02.931Z,4.10
2023-02-27T10:58:34.574Z,4.20
2023-02-27T11:01:03.960Z,4.30
2023-02-27T11:03:33.699Z,4.30
2023-02-27T11:06:04.801Z,4.50
2023-02-27T11:08:33.019Z,4.40
2023-02-27T11:11:10.342Z,4.20
2023-02-27T11:13:42.175Z,4.20
2023-02-27T11:16:22.268Z,4.60
2023-02-27T11:18:50.686Z,4.30
2023-02-27T11:21:31.104Z,4.10
2023-02-27T11:24:04.044Z,3.70
2023-02-27T11:26:56.297Z,3.80
2023-02-27T11:29:22.533Z,4.10
2023-02-27T11:32:13.318Z,4.20
2023-02-27T11:34:46.490Z,4.40
2023-02-27T11:37:30.830Z,4.50
2023-02-27T11:40:14.904Z,4.40
2023-02-27T11:42:52.288Z,4.70
2023-02-27T11:46:09.291Z,4.80
2023-02-27T11:50:39.127Z,4.60
2023-02-27T11:53:27.219Z,3.80
2023-02-27T11:55:54.292Z,3.60
2023-02-27T11:58:22.394Z,2.90
2023-02-27T12:00:56.752Z,5.00
2023-02-27T12:03:48.659Z,2.70
2023-02-27T12:06:26.277Z,2.70
2023-02-27T12:08:56.290Z,2.70
2023-02-27T12:11:27.328Z,2.60
2023-02-27T12:19:09.748Z,2.70
2023-02-27T12:22:03.787Z,3.10
2023-02-27T12:24:41.743Z,3.00
2023-02-27T12:29:03.332Z,2.80
2023-02-27T12:31:51.517Z,2.90
2023-02-27T12:34:39.112Z,3.00
2023-02-27T12:37:12.151Z,3.00
2023-02-27T12:39:39.636Z,2.90
2023-02-27T12:43:03.007Z,2.90
2023-02-27T12:45:52.240Z,3.00
2023-02-27T12:48:36.868Z,2.70
2023-02-27T12:53:58.115Z,2.90
2023-02-27T12:56:31.241Z,3.00
2023-02-27T12:59:23.786Z,2.80
2023-02-27T13:05:49.676Z,2.70
2023-02-27T13:08:47.410Z,2.70
2023-02-27T13:11:43.646Z,2.60
2023-02-27T13:14:27.368Z,2.60
2023-02-27T13:17:02.737Z,2.50
2023-02-27T13:19:40.304Z,2.40
2023-02-27T13:23:48.310Z,2.40
2023-02-27T13:26:46.311Z,2.30
2023-02-27T13:29:17.611Z,2.30
2023-02-27T13:32:27.302Z,2.20
2023-02-27T13:37:57.102Z,2.30
2023-02-27T13:40:33.446Z,2.20
2023-02-27T13:43:52.066Z,2.40
2023-02-27T13:46:37.602Z,2.40
2023-02-27T13:49:29.525Z,2.40
2023-02-27T13:51:59.160Z,2.40
2023-02-27T13:54:33.995Z,2.50
2023-02-27T13:57:18.174Z,2.50
2023-02-27T13:59:55.826Z,2.60
2023-02-27T14:02:57.896Z,2.50
2023-02-27T14:05:33.944Z,2.50
2023-02-27T14:08:16.152Z,2.60
2023-02-27T14:11:03.178Z,2.60
2023-02-27T14:14:06.683Z,2.70
2023-02-27T14:17:08.289Z,2.70
2023-02-27T14:19:47.872Z,2.60
2023-02-27T14:22:40.669Z,2.50
2023-02-27T14:25:22.103Z,2.50
2023-02-27T14:27:56.791Z,2.60
2023-02-27T14:30:35.007Z,2.60
2023-02-27T14:33:12.071Z,2.50
2023-02-27T14:35:38.292Z,2.40
2023-02-27T14:38:10.722Z,2.40
2023-02-27T14:40:42.086Z,2.40
2023-02-27T14:44:28.372Z,2.40
2023-02-27T14:46:55.831Z,2.50
2023-02-27T14:49:29.823Z,2.40
2023-02-27T14:51:56.803Z,2.40
2023-02-27T14:54:24.180Z,2.40
2023-02-27T14:56:57.364Z,2.40
2023-02-27T14:59:28.631Z,2.40
2023-02-27T15:01:56.535Z,2.30
2023-02-27T15:04:25.537Z,2.30
2023-02-27T15:06:52.498Z,2.30
2023-02-27T15:09:44.199Z,2.30
2023-02-27T15:12:15.520Z,2.30
2023-02-27T15:14:43.677Z,2.30
2023-02-27T15:17:23.686Z,2.30
2023-02-27T15:19:52.756Z,2.20
2023-02-27T15:22:36.168Z,2.20
2023-02-27T15:25:07.597Z,2.30
2023-02-27T15:27:36.368Z,2.20
2023-02-27T15:30:04.065Z,2.30
2023-02-27T15:32:38.107Z,2.20
2023-02-27T15:35:51.525Z,2.20
2023-02-27T15:38:37.665Z,2.10
2023-02-27T15:41:07.029Z,5.00
2023-02-27T15:43:35.189Z,2.00
2023-02-27T15:46:02.571Z,2.00
2023-02-27T15:48:30.587Z,1.90
2023-02-27T15:50:57.891Z,1.90
2023-02-27T15:53:28.111Z,1.80
2023-02-27T15:56:00.187Z,1.80
2023-02-27T15:58:33.927Z,1.80
2023-02-27T16:01:03.196Z,1.70
2023-02-27T16:03:35.790Z,1.70
2023-02-27T16:06:02.582Z,1.70
2023-02-27T16:08:30.147Z,1.70
2023-02-27T16:10:57.488Z,1.70
2023-02-27T16:13:37.108Z,1.60
2023-02-27T16:16:35.178Z,3.90
2023-02-27T16:19:26.846Z,1.60
2023-02-27T16:22:19.787Z,1.60
2023-02-27T16:24:45.995Z,1.60
2023-02-27T16:27:17.370Z,1.50
2023-02-27T16:29:45.535Z,1.50
2023-02-27T16:32:40.862Z,1.50
2023-02-27T16:35:16.091Z,1.50
2023-02-27T16:37:44.940Z,1.50
2023-02-27T16:40:16.112Z,1.50
2023-02-27T16:42:43.010Z,1.40
2023-02-27T16:45:14.506Z,1.40
2023-02-27T16:47:40.836Z,1.10
2023-02-27T16:50:16.195Z,1.40
2023-02-27T16:52:44.648Z,1.30
2023-02-27T16:55:11.446Z,1.30
2023-02-27T16:57:38.142Z,1.40
2023-02-27T17:00:09.434Z,1.30
2023-02-27T17:02:35.650Z,1.30
2023-02-27T17:05:02.431Z,1.30
2023-02-27T17:07:30.283Z,1.30
2023-02-27T17:09:57.887Z,1.30
2023-02-27T17:12:24.188Z,1.30
2023-02-27T17:14:52.681Z,1.30
2023-02-27T17:17:18.886Z,1.20
2023-02-27T17:19:46.169Z,1.20
2023-02-27T17:22:12.788Z,0.40
2023-02-27T17:24:40.912Z,1.10
2023-02-27T17:27:08.942Z,1.10
2023-02-27T17:29:37.139Z,1.10
2023-02-27T17:32:04.281Z,1.00
2023-02-27T17:34:31.726Z,1.00
2023-02-27T17:36:59.187Z,0.90
2023-02-27T17:39:25.429Z,0.90
2023-02-27T17:41:53.296Z,0.90
2023-02-27T17:44:20.346Z,0.80
2023-02-27T17:46:46.497Z,0.80
2023-02-27T17:49:14.420Z,0.70
2023-02-27T17:51:40.720Z,0.60
2023-02-27T17:54:08.006Z,0.60
2023-02-27T17:56:36.646Z,0.50
2023-02-27T17:59:03.633Z,0.50
2023-02-27T18:01:31.988Z,0.40
2023-02-27T18:03:58.952Z,0.40
2023-02-27T18:06:26.537Z,0.30
2023-02-27T18:08:54.508Z,0.20
2023-02-27T18:11:22.884Z,0.10
2023-02-27T18:13:51.660Z,0.00
2023-02-27T18:16:18.996Z,-0.10
2023-02-27T18:18:47.776Z,-0.20
2023-02-27T18:21:20.104Z,-0.40
2023-02-27T18:23:47.403Z,-0.40
2023-02-27T18:26:28.570Z,-0.70
2023-02-27T18:29:00.822Z,-0.80
2023-02-27T18:31:29.691Z,-0.80
2023-02-27T18:36:27.332Z,-1.50
2023-02-27T18:38:57.876Z,-1.30
2023-02-27T18:41:25.818Z,-1.50
2023-02-27T18:43:54.760Z,-1.60
2023-02-27T18:46:23.057Z,-1.60
2023-02-27T18:48:52.378Z,-1.70
2023-02-27T18:51:20.507Z,-1.60
2023-02-27T18:53:50.691Z,-1.80
2023-02-27T18:56:20.389Z,-2.00
2023-02-27T18:58:47.747Z,-2.10
2023-02-27T19:01:20.606Z,-2.00
2023-02-27T19:03:49.274Z,-1.90
2023-02-27T19:11:22.739Z,-2.20
2023-02-27T19:16:21.182Z,-2.40
2023-02-27T19:21:16.169Z,-2.40
2023-02-27T19:23:46.500Z,-2.40
2023-02-27T19:26:20.951Z,-2.30
2023-02-27T19:28:53.708Z,-2.40
2023-02-27T19:31:27.318Z,-2.50
2023-02-27T19:33:55.437Z,-2.50
2023-02-27T19:36:24.380Z,-2.60
2023-02-27T19:38:52.704Z,-2.60
2023-02-27T19:41:23.559Z,-3.50
2023-02-27T19:46:22.818Z,-2.80
2023-02-27T19:48:51.556Z,-2.70
2023-02-27T19:51:18.782Z,-2.50
2023-02-27T19:53:47.857Z,-2.70
2023-02-27T19:56:29.104Z,-2.70
2023-02-27T20:01:30.816Z,-2.50
2023-02-27T20:04:09.772Z,-2.50
2023-02-27T20:06:43.691Z,-2.50
2023-02-27T20:09:15.757Z,-2.40
2023-02-27T20:11:43.253Z,-2.50
2023-02-27T20:14:14.000Z,-1.10
2023-02-27T20:16:46.955Z,-2.50
2023-02-27T20:19:18.279Z,-2.70
2023-02-27T20:21:48.640Z,-2.60
2023-02-27T20:26:50.556Z,-2.80
2023-02-27T20:29:19.620Z,-2.90
2023-02-27T20:31:48.204Z,-3.10
2023-02-27T20:34:21.480Z,-2.70
2023-02-27T20:36:50.592Z,-2.90
2023-02-27T20:39:18.395Z,-2.70
2023-02-27T20:46:43.180Z,-2.70
2023-02-27T20:49:15.264Z,-2.60
2023-02-27T20:54:13.378Z,-2.50
2023-02-27T20:56:42.857Z,-2.30
2023-02-27T20:59:16.254Z,-2.30
2023-02-27T21:01:50.561Z,-2.10
2023-02-27T21:04:43.544Z,-2.10
2023-02-27T21:07:12.121Z,-2.00
2023-02-27T21:09:38.774Z,-1.70
2023-02-27T21:12:07.475Z,-1.80
2023-02-27T21:17:01.803Z,-1.60
2023-02-27T21:19:31.748Z,-1.60
2023-02-27T21:24:31.421Z,-1.50
2023-02-27T21:26:59.382Z,-1.30
2023-02-27T21:34:26.432Z,0.10
2023-02-27T21:39:25.296Z,-1.40
2023-02-27T21:41:53.432Z,-1.20
2023-02-27T21:44:21.469Z,-1.20
2023-02-27T21:49:22.318Z,-1.20
2023-02-27T21:54:17.365Z,-1.30
2023-02-27T21:59:11.349Z,-1.00
2023-02-27T22:01:37.821Z,-1.30
2023-02-27T22:06:34.321Z,-1.00
2023-02-27T22:09:03.804Z,-1.10
2023-02-27T22:11:31.410Z,-1.00
2023-02-27T22:13:58.916Z,-1.10
2023-02-27T22:21:23.399Z,-1.10
2023-02-27T22:23:50.305Z,-1.00
2023-02-27T22:26:23.010Z,-0.90
2023-02-27T22:28:51.267Z,-1.10
2023-02-27T22:31:23.009Z,-0.80
2023-02-27T22:33:51.997Z,-0.90
2023-02-27T22:36:23.783Z,-0.80
2023-02-27T22:41:22.574Z,-1.10
2023-02-27T22:43:50.798Z,-1.00
2023-02-27T22:46:25.833Z,-0.80
2023-02-27T22:48:56.430Z,-0.50
2023-02-27T22:53:55.180Z,-0.70
2023-02-27T22:58:48.875Z,0.00
2023-02-27T23:01:21.802Z,-0.50
2023-02-27T23:03:50.707Z,-0.50
2023-02-27T23:06:20.041Z,-0.50
2023-02-27T23:11:14.726Z,-0.60
2023-02-27T23:13:40.968Z,-0.50
2023-02-27T23:18:41.145Z,-0.70
2023-02-27T23:21:07.964Z,-0.70
2023-02-27T23:23:34.188Z,-0.80
2023-02-27T23:26:01.798Z,-0.60
2023-02-27T23:28:29.706Z,-0.60
2023-02-27T23:35:51.296Z,-0.70
2023-02-27T23:48:06.516Z,-0.80
2023-02-27T23:50:38.218Z,-0.60
2023-02-27T23:55:34.672Z,-0.70
2023-02-27T23:58:01.716Z,-0.50
